Time;durP1;ratioP1;P1;durP2;ratioP2;P2;SDS_P1;SDS_P2;PMS_P1;PMS_P2;Temp;Humidity;BMP_temperature;BMP_pressure;BME280_temperature;BME280_humidity;BME280_pressure;Samples;Min_cycle;Max_cycle;Signal;HPM_P1;HPM_P2
2024/04/20 00:00:57;;;;;;;;;;;18.10;69.70;;;;;;5396935;26;1509;-70
2024/04/20 00:03:23;;;;;;;;;;;18.10;69.60;;;;;;5367085;26;1884;-70
2024/04/20 00:05:48;;;;;;;;;;;18.10;69.60;;;;;;5396941;26;1986;-71
2024/04/20 00:08:14;;;;;;;;;;;18.10;69.60;;;;;;5399488;26;1976;-71
2024/04/20 00:10:39;;;;;;;;;;;18.10;69.60;;;;;;5363882;26;2003;-71
2024/04/20 00:13:05;;;;;;;;;;;18.10;69.70;;;;;;5394922;26;1889;-71
2024/04/20 00:15:30;;;;;;;;;;;18.10;69.70;;;;;;5390515;26;1615;-71
2024/04/20 00:17:55;;;;;;;;;;;18.10;69.70;;;;;;5396332;26;1270;-72
2024/04/20 00:20:21;;;;;;;;;;;18.10;69.70;;;;;;5366460;26;1771;-73
2024/04/20 00:22:46;;;;;;;;;;;18.10;69.70;;;;;;5360164;26;1659;-72
2024/04/20 00:25:12;;;;;;;;;;;18.10;69.70;;;;;;5396837;26;1988;-72
2024/04/20 00:27:37;;;;;;;;;;;18.10;69.70;;;;;;5404705;26;1782;-72
2024/04/20 00:30:03;;;;;;;;;;;18.10;69.70;;;;;;5402700;26;2107;-73
2024/04/20 00:32:29;;;;;;;;;;;18.10;70.50;;;;;;5396425;26;1665;-72
2024/04/20 00:34:55;;;;;;;;;;;18.10;69.70;;;;;;5397318;26;1401;-69
2024/04/20 00:37:20;;;;;;;;;;;18.10;69.70;;;;;;5393846;26;1168;-73
2024/04/20 00:39:46;;;;;;;;;;;18.10;69.70;;;;;;5397415;26;1132;-73
2024/04/20 00:42:11;;;;;;;;;;;18.10;69.80;;;;;;5391124;26;1764;-73
2024/04/20 00:44:36;;;;;;;;;;;18.10;69.80;;;;;;5370807;26;1874;-73
2024/04/20 00:47:02;;;;;;;;;;;18.10;69.80;;;;;;5398047;26;2106;-70
2024/04/20 00:49:29;;;;;;;;;;;18.10;69.80;;;;;;5397974;26;1765;-70
2024/04/20 00:51:54;;;;;;;;;;;18.10;69.80;;;;;;5337750;26;1890;-70
2024/04/20 00:54:20;;;;;;;;;;;18.10;69.80;;;;;;5365438;26;1416;-70
2024/04/20 00:56:45;;;;;;;;;;;18.10;69.80;;;;;;5359822;26;2024;-68
2024/04/20 00:59:11;;;;;;;;;;;18.10;69.80;;;;;;5392551;26;1459;-69
2024/04/20 01:01:36;;;;;;;;;;;18.10;69.80;;;;;;5391608;26;1394;-70
2024/04/20 01:04:02;;;;;;;;;;;18.10;69.80;;;;;;5391232;26;1873;-69
2024/04/20 01:06:27;;;;;;;;;;;18.10;69.80;;;;;;5367930;26;1931;-68
2024/04/20 01:08:53;;;;;;;;;;;18.10;69.80;;;;;;5395830;26;1779;-69
2024/04/20 01:11:18;;;;;;;;;;;18.10;69.80;;;;;;5395604;26;1841;-70
2024/04/20 01:13:55;;;;;;;;;;;18.10;69.80;;;;;;5395542;26;1884;-69
2024/04/20 01:16:21;;;;;;;;;;;18.10;69.80;;;;;;5393098;26;1875;-71
2024/04/20 01:18:47;;;;;;;;;;;18.10;69.80;;;;;;5379538;26;2031;-71
2024/04/20 01:21:12;;;;;;;;;;;18.10;69.90;;;;;;5393984;26;1876;-71
2024/04/20 01:23:38;;;;;;;;;;;18.00;69.80;;;;;;5419749;26;1448;-71
2024/04/20 01:26:03;;;;;;;;;;;18.10;69.90;;;;;;5365746;26;1829;-71
2024/04/20 01:28:29;;;;;;;;;;;18.10;69.90;;;;;;5398531;26;1890;-71
2024/04/20 01:30:54;;;;;;;;;;;18.00;69.80;;;;;;5394098;26;1291;-71
2024/04/20 01:33:20;;;;;;;;;;;18.10;69.90;;;;;;5402920;26;1041;-71
2024/04/20 01:35:46;;;;;;;;;;;18.10;69.90;;;;;;5400404;26;1517;-71
2024/04/20 01:38:11;;;;;;;;;;;18.00;69.80;;;;;;5399324;26;1402;-71
2024/04/20 01:40:37;;;;;;;;;;;18.10;69.90;;;;;;5388857;26;1689;-71
2024/04/20 01:43:03;;;;;;;;;;;18.10;69.90;;;;;;5366137;26;1878;-71
2024/04/20 01:45:28;;;;;;;;;;;18.00;69.80;;;;;;5354968;26;1849;-70
2024/04/20 01:47:54;;;;;;;;;;;18.10;69.90;;;;;;5364345;26;1908;-71
2024/04/20 01:50:19;;;;;;;;;;;18.10;69.90;;;;;;5396541;26;1764;-70
2024/04/20 01:52:45;;;;;;;;;;;18.10;69.90;;;;;;5394656;26;2014;-69
2024/04/20 01:55:10;;;;;;;;;;;18.00;69.80;;;;;;5394415;26;1863;-71
2024/04/20 01:57:35;;;;;;;;;;;18.10;69.90;;;;;;5392357;26;1979;-70
2024/04/20 02:00:01;;;;;;;;;;;18.00;69.80;;;;;;5391003;26;1709;-70
2024/04/20 02:02:27;;;;;;;;;;;18.00;69.90;;;;;;5398771;26;1481;-69
2024/04/20 02:04:52;;;;;;;;;;;18.00;69.80;;;;;;5393547;26;1829;-70
2024/04/20 02:07:17;;;;;;;;;;;18.00;69.80;;;;;;5360534;26;1982;-71
2024/04/20 02:09:43;;;;;;;;;;;18.00;69.90;;;;;;5390949;26;1668;-70
2024/04/20 02:12:09;;;;;;;;;;;18.00;69.90;;;;;;5394250;26;1801;-71
2024/04/20 02:14:35;;;;;;;;;;;18.10;69.90;;;;;;5361879;26;1380;-71
2024/04/20 02:17:00;;;;;;;;;;;18.10;69.90;;;;;;5394753;26;1919;-71
2024/04/20 02:19:26;;;;;;;;;;;18.00;69.90;;;;;;5388145;26;1512;-71
2024/04/20 02:21:51;;;;;;;;;;;18.00;69.90;;;;;;5393945;26;1841;-73
2024/04/20 02:24:16;;;;;;;;;;;18.00;69.90;;;;;;5393082;26;1838;-72
2024/04/20 02:26:42;;;;;;;;;;;18.00;69.90;;;;;;5398413;26;1748;-72
2024/04/20 02:29:07;;;;;;;;;;;18.00;69.90;;;;;;5393704;26;1906;-71
2024/04/20 02:31:33;;;;;;;;;;;18.00;69.90;;;;;;5376168;26;1856;-71
2024/04/20 02:33:58;;;;;;;;;;;18.00;69.90;;;;;;5393430;26;1962;-70
2024/04/20 02:36:25;;;;;;;;;;;18.00;69.90;;;;;;5416803;26;1848;-71
2024/04/20 02:38:50;;;;;;;;;;;18.00;69.90;;;;;;5385851;26;2054;-71
2024/04/20 02:41:15;;;;;;;;;;;18.00;69.90;;;;;;5360842;26;1963;-70
2024/04/20 02:43:41;;;;;;;;;;;18.00;69.90;;;;;;5398573;26;1943;-70
2024/04/20 02:46:06;;;;;;;;;;;18.00;69.90;;;;;;5394669;26;1901;-70
2024/04/20 02:48:32;;;;;;;;;;;18.00;69.90;;;;;;5392354;26;2000;-70
2024/04/20 02:50:57;;;;;;;;;;;18.00;70.00;;;;;;5395728;26;1722;-71
2024/04/20 02:53:23;;;;;;;;;;;18.00;69.90;;;;;;5392024;26;1330;-71
2024/04/20 02:55:48;;;;;;;;;;;18.00;70.00;;;;;;5397371;26;1730;-70
2024/04/20 02:58:14;;;;;;;;;;;18.00;70.00;;;;;;5392788;26;1842;-70
2024/04/20 03:00:39;;;;;;;;;;;18.00;69.90;;;;;;5359751;26;1811;-70
2024/04/20 03:03:05;;;;;;;;;;;18.00;70.00;;;;;;5397426;26;2078;-71
2024/04/20 03:05:30;;;;;;;;;;;18.00;70.00;;;;;;5393009;26;1825;-70
2024/04/20 03:07:56;;;;;;;;;;;18.00;70.00;;;;;;5397035;26;1839;-71
2024/04/20 03:10:21;;;;;;;;;;;18.00;70.00;;;;;;5396039;26;1757;-71
2024/04/20 03:12:49;;;;;;;;;;;18.00;70.00;;;;;;5400063;26;2001;-71
2024/04/20 03:15:15;;;;;;;;;;;18.00;70.00;;;;;;5395339;26;1920;-70
2024/04/20 03:17:40;;;;;;;;;;;18.00;70.00;;;;;;5397345;26;1790;-71
2024/04/20 03:20:06;;;;;;;;;;;18.00;70.00;;;;;;5399068;26;1921;-71
2024/04/20 03:22:31;;;;;;;;;;;18.00;70.00;;;;;;5420818;26;1897;-70
2024/04/20 03:24:57;;;;;;;;;;;18.00;70.00;;;;;;5420167;26;1910;-70
2024/04/20 03:27:22;;;;;;;;;;;18.00;70.00;;;;;;5362105;26;1828;-71
2024/04/20 03:29:47;;;;;;;;;;;18.00;70.00;;;;;;5392752;26;1676;-70
2024/04/20 03:32:13;;;;;;;;;;;18.00;70.00;;;;;;5401661;26;1431;-70
2024/04/20 03:34:38;;;;;;;;;;;18.00;70.00;;;;;;5368042;26;1049;-71
2024/04/20 03:37:11;;;;;;;;;;;18.00;70.00;;;;;;5390785;26;2038;-71
2024/04/20 03:39:37;;;;;;;;;;;18.00;70.00;;;;;;5392820;26;1982;-71
2024/04/20 03:42:02;;;;;;;;;;;18.00;70.00;;;;;;5397328;26;1917;-71
2024/04/20 03:44:28;;;;;;;;;;;18.00;70.00;;;;;;5394191;26;1999;-70
2024/04/20 03:46:53;;;;;;;;;;;18.00;70.20;;;;;;5398797;26;1909;-70
2024/04/20 03:49:19;;;;;;;;;;;18.00;70.00;;;;;;5395978;26;1879;-71
2024/04/20 03:51:44;;;;;;;;;;;18.00;70.00;;;;;;5351528;26;1882;-71
2024/04/20 03:54:10;;;;;;;;;;;18.00;70.00;;;;;;5392458;26;1976;-71
2024/04/20 03:56:35;;;;;;;;;;;18.00;70.00;;;;;;5394488;26;1709;-71
2024/04/20 03:59:01;;;;;;;;;;;18.00;70.10;;;;;;5394794;26;1695;-70
2024/04/20 04:01:26;;;;;;;;;;;18.00;70.10;;;;;;5366190;26;1869;-72
2024/04/20 04:03:52;;;;;;;;;;;18.00;70.10;;;;;;5400109;26;1895;-71
2024/04/20 04:06:17;;;;;;;;;;;18.00;70.00;;;;;;5363027;26;1842;-71
2024/04/20 04:08:43;;;;;;;;;;;18.00;70.10;;;;;;5389344;26;1419;-71
2024/04/20 04:11:08;;;;;;;;;;;18.00;70.00;;;;;;5390877;26;1952;-71
2024/04/20 04:13:34;;;;;;;;;;;18.00;70.00;;;;;;5376278;26;1492;-70
2024/04/20 04:15:59;;;;;;;;;;;18.00;70.00;;;;;;5390376;26;1425;-70
2024/04/20 04:18:25;;;;;;;;;;;18.10;70.00;;;;;;5392976;26;1267;-71
2024/04/20 04:20:50;;;;;;;;;;;18.10;69.90;;;;;;5394302;26;1994;-71
2024/04/20 04:23:16;;;;;;;;;;;18.10;69.80;;;;;;5396107;26;1948;-71
2024/04/20 04:25:42;;;;;;;;;;;18.10;69.70;;;;;;5391964;26;1963;-70
2024/04/20 04:28:07;;;;;;;;;;;18.20;69.70;;;;;;5362636;26;1866;-71
2024/04/20 04:30:33;;;;;;;;;;;18.20;69.60;;;;;;5396324;26;1765;-70
2024/04/20 04:32:59;;;;;;;;;;;18.20;69.50;;;;;;5416385;26;1933;-70
2024/04/20 04:35:26;;;;;;;;;;;18.20;69.40;;;;;;5395477;26;1882;-71
2024/04/20 04:37:52;;;;;;;;;;;18.20;69.30;;;;;;5398903;26;1769;-70
2024/04/20 04:40:17;;;;;;;;;;;18.20;69.10;;;;;;5425105;26;1756;-71
2024/04/20 04:42:43;;;;;;;;;;;18.30;69.10;;;;;;5396958;26;2070;-70
2024/04/20 04:45:08;;;;;;;;;;;18.30;69.00;;;;;;5396843;26;1874;-71
2024/04/20 04:47:34;;;;;;;;;;;18.30;69.00;;;;;;5390099;26;1956;-71
2024/04/20 04:49:59;;;;;;;;;;;18.30;68.90;;;;;;5422213;26;1766;-71
2024/04/20 04:52:25;;;;;;;;;;;18.30;68.80;;;;;;5388256;26;1849;-71
2024/04/20 04:54:50;;;;;;;;;;;18.30;68.80;;;;;;5364350;26;2447;-68
2024/04/20 04:57:16;;;;;;;;;;;18.40;68.80;;;;;;5397118;26;2788;-68
2024/04/20 04:59:41;;;;;;;;;;;18.40;68.70;;;;;;5394482;26;1861;-69
2024/04/20 05:02:06;;;;;;;;;;;18.40;68.60;;;;;;5395883;26;1831;-69
2024/04/20 05:04:32;;;;;;;;;;;18.40;68.50;;;;;;5392192;26;2033;-69
2024/04/20 05:06:59;;;;;;;;;;;18.40;68.40;;;;;;5393905;26;1626;-70
2024/04/20 05:09:24;;;;;;;;;;;18.50;68.40;;;;;;5395456;26;1869;-71
2024/04/20 05:11:50;;;;;;;;;;;18.50;68.30;;;;;;5396662;26;1836;-72
2024/04/20 05:14:15;;;;;;;;;;;18.50;68.30;;;;;;5393170;26;1657;-71
2024/04/20 05:16:41;;;;;;;;;;;18.50;68.20;;;;;;5393745;26;1937;-71
2024/04/20 05:19:07;;;;;;;;;;;18.50;68.20;;;;;;5365229;26;1902;-72
2024/04/20 05:21:32;;;;;;;;;;;18.50;68.20;;;;;;5392716;26;1889;-72
2024/04/20 05:23:59;;;;;;;;;;;18.50;68.20;;;;;;5391885;26;2021;-72
2024/04/20 05:26:25;;;;;;;;;;;18.50;68.10;;;;;;5426401;26;1857;-72
2024/04/20 05:28:50;;;;;;;;;;;18.50;68.10;;;;;;5397768;26;1787;-71
2024/04/20 05:31:16;;;;;;;;;;;18.50;68.10;;;;;;5401969;26;1870;-72
2024/04/20 05:33:42;;;;;;;;;;;18.50;68.10;;;;;;5406420;26;1429;-72
2024/04/20 05:36:08;;;;;;;;;;;18.50;68.10;;;;;;5395262;26;1176;-72
2024/04/20 05:38:34;;;;;;;;;;;18.50;68.20;;;;;;5341422;26;1851;-71
2024/04/20 05:41:05;;;;;;;;;;;18.50;68.20;;;;;;5395278;26;1705;-69
2024/04/20 05:43:31;;;;;;;;;;;18.50;68.20;;;;;;5390363;26;1891;-72
2024/04/20 05:45:56;;;;;;;;;;;18.50;68.20;;;;;;5394426;26;1880;-74
2024/04/20 05:48:21;;;;;;;;;;;18.50;68.20;;;;;;5361927;26;1915;-73
2024/04/20 05:50:47;;;;;;;;;;;18.50;68.20;;;;;;5391335;26;1622;-73
2024/04/20 05:53:13;;;;;;;;;;;18.50;68.30;;;;;;5389441;26;2131;-74
2024/04/20 05:55:38;;;;;;;;;;;18.50;68.30;;;;;;5392524;26;1883;-71
2024/04/20 05:58:04;;;;;;;;;;;18.50;68.30;;;;;;5419014;26;2038;-71
2024/04/20 06:00:30;;;;;;;;;;;18.50;68.30;;;;;;5420629;26;1397;-71
2024/04/20 06:02:55;;;;;;;;;;;18.50;68.30;;;;;;5396184;26;1651;-71
2024/04/20 06:05:21;;;;;;;;;;;18.50;68.40;;;;;;5421036;26;1872;-71
2024/04/20 06:07:47;;;;;;;;;;;18.40;68.30;;;;;;5391032;26;2057;-71
2024/04/20 06:10:13;;;;;;;;;;;18.40;68.30;;;;;;5392870;26;2080;-71
2024/04/20 06:12:39;;;;;;;;;;;18.40;68.40;;;;;;5417421;26;1875;-72
2024/04/20 06:15:04;;;;;;;;;;;18.50;68.50;;;;;;5396007;26;1776;-71
2024/04/20 06:17:30;;;;;;;;;;;18.40;68.40;;;;;;5417255;26;1769;-72
2024/04/20 06:19:55;;;;;;;;;;;18.40;68.50;;;;;;5367929;26;1783;-71
2024/04/20 06:22:21;;;;;;;;;;;18.40;68.50;;;;;;5393709;26;1748;-71
2024/04/20 06:24:48;;;;;;;;;;;18.40;68.50;;;;;;5391280;26;1927;-72
2024/04/20 06:27:13;;;;;;;;;;;18.40;68.50;;;;;;5418006;26;1991;-71
2024/04/20 06:29:39;;;;;;;;;;;18.40;68.50;;;;;;5392059;26;1742;-71
2024/04/20 06:32:04;;;;;;;;;;;18.40;68.60;;;;;;5392463;26;2027;-72
2024/04/20 06:34:31;;;;;;;;;;;18.40;68.60;;;;;;5396501;26;1939;-73
2024/04/20 06:36:57;;;;;;;;;;;18.40;68.70;;;;;;5385728;26;1841;-73
2024/04/20 06:39:22;;;;;;;;;;;18.40;68.70;;;;;;5391908;26;1879;-71
2024/04/20 06:41:47;;;;;;;;;;;18.40;68.70;;;;;;5364647;26;2005;-74
2024/04/20 06:44:13;;;;;;;;;;;18.40;68.70;;;;;;5390957;26;2228;-74
2024/04/20 06:46:40;;;;;;;;;;;18.40;68.70;;;;;;5395494;26;1772;-74
2024/04/20 06:49:05;;;;;;;;;;;18.40;68.80;;;;;;5369858;26;1710;-73
2024/04/20 06:51:31;;;;;;;;;;;18.40;68.80;;;;;;5393231;26;1925;-72
2024/04/20 06:53:56;;;;;;;;;;;18.40;68.80;;;;;;5425321;26;2068;-71
2024/04/20 06:56:23;;;;;;;;;;;18.40;68.80;;;;;;5394161;26;2659;-72
2024/04/20 06:58:49;;;;;;;;;;;18.40;68.80;;;;;;5423339;26;1368;-72
2024/04/20 07:01:15;;;;;;;;;;;18.30;68.80;;;;;;5398569;26;1651;-72
2024/04/20 07:03:41;;;;;;;;;;;18.30;68.80;;;;;;5370185;26;1922;-71
2024/04/20 07:06:06;;;;;;;;;;;18.30;68.80;;;;;;5397177;26;1830;-72
2024/04/20 07:08:32;;;;;;;;;;;18.30;68.80;;;;;;5422846;26;1663;-72
2024/04/20 07:11:01;;;;;;;;;;;18.30;68.90;;;;;;5394244;26;1774;-71
2024/04/20 07:13:37;;;;;;;;;;;18.30;68.90;;;;;;5366238;26;1955;-71
2024/04/20 07:16:02;;;;;;;;;;;18.30;68.90;;;;;;5422512;26;1872;-71
2024/04/20 07:18:28;;;;;;;;;;;18.30;68.90;;;;;;5393238;26;1605;-71
2024/04/20 07:20:54;;;;;;;;;;;18.30;69.00;;;;;;5399614;26;1776;-72
2024/04/20 07:23:19;;;;;;;;;;;18.30;68.90;;;;;;5396123;26;1817;-71
2024/04/20 07:25:45;;;;;;;;;;;18.30;68.90;;;;;;5394789;26;1824;-71
2024/04/20 07:28:10;;;;;;;;;;;18.30;68.90;;;;;;5394341;26;1904;-71
2024/04/20 07:30:36;;;;;;;;;;;18.30;68.90;;;;;;5425195;26;1157;-71
2024/04/20 07:33:01;;;;;;;;;;;18.30;68.80;;;;;;5397851;26;1136;-71
2024/04/20 07:35:27;;;;;;;;;;;18.30;68.80;;;;;;5397362;26;1156;-71
2024/04/20 07:37:52;;;;;;;;;;;18.40;68.80;;;;;;5394678;26;1561;-71
2024/04/20 07:40:18;;;;;;;;;;;18.40;68.80;;;;;;5376445;26;1379;-72
2024/04/20 07:42:43;;;;;;;;;;;18.40;68.70;;;;;;5399139;26;1386;-70
2024/04/20 07:45:09;;;;;;;;;;;18.40;68.70;;;;;;5396660;26;1920;-71
2024/04/20 07:47:34;;;;;;;;;;;18.40;68.60;;;;;;5398192;26;1450;-71
2024/04/20 07:50:00;;;;;;;;;;;18.40;68.50;;;;;;5393260;26;1757;-71
2024/04/20 07:52:25;;;;;;;;;;;18.40;68.50;;;;;;5402540;26;1515;-71
2024/04/20 07:54:51;;;;;;;;;;;18.40;68.40;;;;;;5397810;26;1424;-71
2024/04/20 07:57:16;;;;;;;;;;;18.50;68.50;;;;;;5398917;26;1939;-71
2024/04/20 07:59:42;;;;;;;;;;;18.50;68.40;;;;;;5397736;26;1966;-71
2024/04/20 08:02:07;;;;;;;;;;;18.50;68.40;;;;;;5405562;26;1966;-71
2024/04/20 08:04:33;;;;;;;;;;;18.50;68.30;;;;;;5397737;26;1862;-71
2024/04/20 08:06:58;;;;;;;;;;;18.50;68.30;;;;;;5363351;26;1645;-72
2024/04/20 08:09:24;;;;;;;;;;;18.50;68.30;;;;;;5376952;26;1271;-71
2024/04/20 08:11:49;;;;;;;;;;;18.50;68.30;;;;;;5425600;26;1450;-72
2024/04/20 08:14:15;;;;;;;;;;;18.50;68.20;;;;;;5362445;26;2093;-70
2024/04/20 08:16:40;;;;;;;;;;;18.50;68.30;;;;;;5390580;26;1922;-70
2024/04/20 08:19:06;;;;;;;;;;;18.50;68.30;;;;;;5397550;26;1904;-71
2024/04/20 08:21:31;;;;;;;;;;;18.50;68.30;;;;;;5390760;26;1863;-71
2024/04/20 08:23:56;;;;;;;;;;;18.50;68.30;;;;;;5397449;26;1893;-71
2024/04/20 08:26:22;;;;;;;;;;;18.50;68.30;;;;;;5397141;26;1929;-71
2024/04/20 08:28:47;;;;;;;;;;;18.50;68.30;;;;;;5396714;26;2453;-72
2024/04/20 08:31:13;;;;;;;;;;;18.50;68.30;;;;;;5365705;26;1646;-73
2024/04/20 08:33:38;;;;;;;;;;;18.50;68.40;;;;;;5392476;26;1852;-72
2024/04/20 08:36:04;;;;;;;;;;;18.50;68.40;;;;;;5393401;26;1920;-72
2024/04/20 08:38:30;;;;;;;;;;;18.50;68.40;;;;;;5394136;26;1866;-72
2024/04/20 08:41:04;;;;;;;;;;;18.50;68.40;;;;;;5401797;26;1830;-72
2024/04/20 08:43:30;;;;;;;;;;;18.40;68.40;;;;;;5348509;26;1979;-72
2024/04/20 08:45:56;;;;;;;;;;;18.40;68.40;;;;;;5393492;26;1929;-72
2024/04/20 08:48:23;;;;;;;;;;;18.40;68.40;;;;;;5367709;26;1919;-72
2024/04/20 08:50:49;;;;;;;;;;;18.40;68.40;;;;;;5417781;26;1911;-73
2024/04/20 08:53:14;;;;;;;;;;;18.40;68.40;;;;;;5336801;26;1981;-72
2024/04/20 08:55:40;;;;;;;;;;;18.40;68.40;;;;;;5393146;26;1671;-72
2024/04/20 08:58:05;;;;;;;;;;;18.40;68.40;;;;;;5417603;26;2022;-73
2024/04/20 09:00:31;;;;;;;;;;;18.40;68.40;;;;;;5390176;26;2062;-72
2024/04/20 09:02:56;;;;;;;;;;;18.40;68.40;;;;;;5360573;26;1868;-72
2024/04/20 09:05:22;;;;;;;;;;;18.40;68.40;;;;;;5419369;26;1868;-72
2024/04/20 09:07:47;;;;;;;;;;;18.50;68.40;;;;;;5423842;26;1951;-72
2024/04/20 09:10:13;;;;;;;;;;;18.40;68.30;;;;;;5397544;26;1934;-72
2024/04/20 09:12:38;;;;;;;;;;;18.50;68.40;;;;;;5361779;26;1952;-73
2024/04/20 09:15:07;;;;;;;;;;;18.50;68.40;;;;;;5397728;26;1968;-72
2024/04/20 09:17:32;;;;;;;;;;;18.50;68.30;;;;;;5412240;26;1415;-72
2024/04/20 09:19:59;;;;;;;;;;;18.50;68.30;;;;;;5385874;26;1230;-72
2024/04/20 09:22:24;;;;;;;;;;;18.50;68.30;;;;;;5375679;26;1277;-72
2024/04/20 09:25:03;;;;;;;;;;;18.50;68.20;;;;;;5373084;26;1829;-73
2024/04/20 09:27:28;;;;;;;;;;;18.50;68.20;;;;;;5405312;26;1617;-72
2024/04/20 09:29:54;;;;;;;;;;;18.50;68.20;;;;;;5416857;26;1306;-72
2024/04/20 09:32:21;;;;;;;;;;;18.50;68.20;;;;;;5385479;26;1251;-72
2024/04/20 09:34:47;;;;;;;;;;;18.50;68.10;;;;;;5366805;26;912;-72
2024/04/20 09:37:13;;;;;;;;;;;18.50;68.10;;;;;;5414156;26;1149;-71
2024/04/20 09:39:38;;;;;;;;;;;18.50;68.10;;;;;;5417168;26;1048;-72
2024/04/20 09:42:04;;;;;;;;;;;18.50;68.10;;;;;;5353578;26;1336;-72
2024/04/20 09:44:31;;;;;;;;;;;18.50;68.10;;;;;;5383100;26;2249;-72
2024/04/20 09:46:56;;;;;;;;;;;18.50;68.10;;;;;;5381509;26;1361;-73
2024/04/20 09:49:22;;;;;;;;;;;18.50;68.20;;;;;;5385107;26;1185;-73
2024/04/20 09:51:54;;;;;;;;;;;18.50;68.20;;;;;;5379938;26;962;-72
2024/04/20 09:54:20;;;;;;;;;;;18.50;68.20;;;;;;5381811;26;1161;-73
2024/04/20 09:56:46;;;;;;;;;;;18.50;68.20;;;;;;5347495;26;1277;-72
2024/04/20 09:59:11;;;;;;;;;;;18.50;68.20;;;;;;5384626;26;1332;-73
2024/04/20 10:01:37;;;;;;;;;;;18.50;68.30;;;;;;5385531;26;945;-72
2024/04/20 10:04:02;;;;;;;;;;;18.50;68.30;;;;;;5379310;26;1443;-73
2024/04/20 10:06:28;;;;;;;;;;;18.50;68.30;;;;;;5416118;26;1829;-71
2024/04/20 10:08:53;;;;;;;;;;;18.50;68.30;;;;;;5380802;26;1295;-72
2024/04/20 10:11:19;;;;;;;;;;;18.50;68.40;;;;;;5347164;26;1119;-73
2024/04/20 10:13:44;;;;;;;;;;;18.50;68.40;;;;;;5385370;26;1072;-72
2024/04/20 10:16:10;;;;;;;;;;;18.40;68.40;;;;;;5383393;26;1296;-72
2024/04/20 10:18:35;;;;;;;;;;;18.40;68.40;;;;;;5370556;26;1173;-72
2024/04/20 10:21:01;;;;;;;;;;;18.40;68.40;;;;;;5375916;26;879;-71
2024/04/20 10:23:26;;;;;;;;;;;18.40;68.40;;;;;;5382850;26;941;-73
2024/04/20 10:25:53;;;;;;;;;;;18.40;68.40;;;;;;5370025;26;1837;-72
2024/04/20 10:28:39;;;;;;;;;;;18.40;68.40;;;;;;5367062;26;876;-73
2024/04/20 10:31:05;;;;;;;;;;;18.40;68.40;;;;;;5403432;26;920;-73
2024/04/20 10:33:32;;;;;;;;;;;18.40;68.40;;;;;;5385031;26;961;-72
2024/04/20 10:35:58;;;;;;;;;;;18.40;68.40;;;;;;5400646;26;1161;-72
2024/04/20 10:38:31;;;;;;;;;;;18.40;68.40;;;;;;5385158;26;812;-72
2024/04/20 10:40:56;;;;;;;;;;;18.40;68.40;;;;;;5385119;26;1329;-72
2024/04/20 10:43:22;;;;;;;;;;;18.40;68.40;;;;;;5415991;26;801;-72
2024/04/20 10:46:01;;;;;;;;;;;18.40;68.40;;;;;;5384229;26;1829;-73
2024/04/20 10:48:27;;;;;;;;;;;18.40;68.40;;;;;;5372283;26;1248;-72
2024/04/20 10:51:02;;;;;;;;;;;18.40;68.30;;;;;;5410745;26;1504;-72
2024/04/20 10:53:27;;;;;;;;;;;18.40;68.30;;;;;;5384213;26;899;-73
2024/04/20 10:55:56;;;;;;;;;;;18.50;68.40;;;;;;5401344;26;1366;-72
2024/04/20 10:58:22;;;;;;;;;;;18.50;68.30;;;;;;5384461;26;1442;-72
2024/04/20 11:00:47;;;;;;;;;;;18.50;68.40;;;;;;5405213;26;1149;-73
2024/04/20 11:03:13;;;;;;;;;;;18.50;68.30;;;;;;5382528;26;1421;-72
2024/04/20 11:05:38;;;;;;;;;;;18.50;68.40;;;;;;5396005;26;1829;-72
2024/04/20 11:08:04;;;;;;;;;;;18.50;68.30;;;;;;5396694;26;1999;-73
2024/04/20 11:10:29;;;;;;;;;;;18.50;68.30;;;;;;5390922;26;1386;-72
2024/04/20 11:12:59;;;;;;;;;;;18.50;68.30;;;;;;5362448;26;1955;-73
2024/04/20 11:15:24;;;;;;;;;;;18.50;68.30;;;;;;5360890;26;1402;-73
2024/04/20 11:17:50;;;;;;;;;;;18.50;68.30;;;;;;5362022;26;1879;-73
2024/04/20 11:20:16;;;;;;;;;;;18.50;68.20;;;;;;5392189;26;2008;-72
2024/04/20 11:22:41;;;;;;;;;;;18.50;69.00;;;;;;5375536;26;1777;-73
2024/04/20 11:25:08;;;;;;;;;;;18.50;68.20;;;;;;5360024;26;1826;-73
2024/04/20 11:27:33;;;;;;;;;;;18.50;68.20;;;;;;5421985;26;1632;-74
2024/04/20 11:30:01;;;;;;;;;;;18.50;68.20;;;;;;5365833;26;1909;-73
2024/04/20 11:32:26;;;;;;;;;;;18.50;68.20;;;;;;5366817;26;1424;-72
2024/04/20 11:34:53;;;;;;;;;;;18.50;68.20;;;;;;5395516;26;1642;-73
2024/04/20 11:37:22;;;;;;;;;;;18.50;68.20;;;;;;5394019;26;1848;-73
2024/04/20 11:39:47;;;;;;;;;;;18.50;68.20;;;;;;5396446;26;2088;-73
2024/04/20 11:42:16;;;;;;;;;;;18.50;68.20;;;;;;5369573;26;1962;-73
2024/04/20 11:44:41;;;;;;;;;;;18.50;68.30;;;;;;5393521;26;1868;-73
2024/04/20 11:47:16;;;;;;;;;;;18.50;68.30;;;;;;5362083;26;2214;-73
2024/04/20 11:49:49;;;;;;;;;;;18.40;68.30;;;;;;5418524;26;1755;-73
2024/04/20 11:55:05;;;;;;;;;;;18.50;68.40;;;;;;5381316;26;1812;-72
2024/04/20 11:57:30;;;;;;;;;;;18.40;68.30;;;;;;5357755;26;2832;-72
2024/04/20 11:59:58;;;;;;;;;;;18.40;68.40;;;;;;5393437;26;1672;-72
2024/04/20 12:02:24;;;;;;;;;;;18.40;68.40;;;;;;5425554;26;1849;-72
2024/04/20 12:04:50;;;;;;;;;;;18.50;68.50;;;;;;5394771;26;1882;-71
2024/04/20 12:07:15;;;;;;;;;;;18.40;68.40;;;;;;5364485;26;1819;-71
2024/04/20 12:09:41;;;;;;;;;;;18.40;68.40;;;;;;5390748;26;1279;-71
2024/04/20 12:12:06;;;;;;;;;;;18.40;68.40;;;;;;5421155;26;1867;-71
2024/04/20 12:14:32;;;;;;;;;;;18.40;68.40;;;;;;5362034;26;2132;-72
2024/04/20 12:16:57;;;;;;;;;;;18.40;68.40;;;;;;5396160;26;1904;-71
2024/04/20 12:19:23;;;;;;;;;;;18.40;68.40;;;;;;5397033;26;1875;-72
2024/04/20 12:21:48;;;;;;;;;;;18.50;68.40;;;;;;5360217;26;1959;-72
2024/04/20 12:24:15;;;;;;;;;;;18.40;68.30;;;;;;5390734;26;1943;-72
2024/04/20 12:26:41;;;;;;;;;;;18.40;68.30;;;;;;5361938;26;1578;-71
2024/04/20 12:29:06;;;;;;;;;;;18.50;68.30;;;;;;5379998;26;1754;-71
2024/04/20 12:31:32;;;;;;;;;;;18.50;68.30;;;;;;5393261;26;1858;-72
2024/04/20 12:33:59;;;;;;;;;;;18.50;68.30;;;;;;5362399;26;1947;-71
2024/04/20 12:36:25;;;;;;;;;;;18.50;68.20;;;;;;5396464;26;1806;-71
2024/04/20 12:38:50;;;;;;;;;;;18.50;68.20;;;;;;5363254;26;1905;-71
2024/04/20 12:41:20;;;;;;;;;;;18.50;68.20;;;;;;5397790;26;2079;-72
2024/04/20 12:43:46;;;;;;;;;;;18.50;68.20;;;;;;5392474;26;2085;-71
2024/04/20 12:46:12;;;;;;;;;;;18.50;68.20;;;;;;5419292;26;1823;-72
2024/04/20 12:48:37;;;;;;;;;;;18.50;68.20;;;;;;5395607;26;1726;-71
2024/04/20 12:51:03;;;;;;;;;;;18.50;68.20;;;;;;5396855;26;1953;-71
2024/04/20 12:53:29;;;;;;;;;;;18.50;68.20;;;;;;5393630;26;1954;-72
2024/04/20 12:55:54;;;;;;;;;;;18.50;68.20;;;;;;5396876;26;1621;-72
2024/04/20 12:58:21;;;;;;;;;;;18.50;68.20;;;;;;5396645;26;1402;-70
2024/04/20 13:00:46;;;;;;;;;;;18.50;68.30;;;;;;5392336;26;1619;-72
2024/04/20 13:03:12;;;;;;;;;;;18.50;68.30;;;;;;5367792;26;2211;-71
2024/04/20 13:05:37;;;;;;;;;;;18.50;68.30;;;;;;5393233;26;2043;-71
2024/04/20 13:08:03;;;;;;;;;;;18.50;68.30;;;;;;5359014;26;1938;-71
2024/04/20 13:10:28;;;;;;;;;;;18.50;68.30;;;;;;5402052;26;1794;-72
2024/04/20 13:12:54;;;;;;;;;;;18.50;68.30;;;;;;5403565;26;1762;-71
2024/04/20 13:15:19;;;;;;;;;;;18.50;68.30;;;;;;5408465;26;1860;-70
2024/04/20 13:17:45;;;;;;;;;;;18.50;68.30;;;;;;5378241;26;1440;-69
2024/04/20 13:20:10;;;;;;;;;;;18.50;68.20;;;;;;5396103;26;1304;-69
2024/04/20 13:22:35;;;;;;;;;;;18.50;68.20;;;;;;5400788;26;984;-69
2024/04/20 13:25:01;;;;;;;;;;;18.50;68.20;;;;;;5405870;26;1865;-70
2024/04/20 13:27:27;;;;;;;;;;;18.50;68.10;;;;;;5405520;26;1883;-70
2024/04/20 13:29:52;;;;;;;;;;;18.50;68.10;;;;;;5406071;26;793;-70
2024/04/20 13:32:18;;;;;;;;;;;18.50;68.00;;;;;;5368954;26;1624;-69
2024/04/20 13:34:43;;;;;;;;;;;18.50;68.00;;;;;;5368772;26;1562;-69
2024/04/20 13:37:10;;;;;;;;;;;18.50;68.00;;;;;;5394104;26;1718;-69
2024/04/20 13:39:35;;;;;;;;;;;18.60;68.00;;;;;;5415859;26;1429;-70
2024/04/20 13:42:02;;;;;;;;;;;18.60;67.90;;;;;;5415847;26;1379;-69
2024/04/20 13:44:27;;;;;;;;;;;18.60;67.80;;;;;;5414682;26;1818;-70
2024/04/20 13:46:52;;;;;;;;;;;18.60;67.80;;;;;;5401390;26;1238;-70
2024/04/20 13:49:18;;;;;;;;;;;18.60;67.70;;;;;;5409555;26;937;-69
2024/04/20 13:51:44;;;;;;;;;;;18.60;67.70;;;;;;5344726;26;1216;-69
2024/04/20 13:54:11;;;;;;;;;;;18.60;67.70;;;;;;5377152;26;2014;-70
2024/04/20 13:56:36;;;;;;;;;;;18.60;67.70;;;;;;5414014;26;1844;-70
2024/04/20 13:59:02;;;;;;;;;;;18.60;67.70;;;;;;5397309;26;2041;-72
2024/04/20 14:01:31;;;;;;;;;;;18.70;67.70;;;;;;5394092;26;1927;-73
2024/04/20 14:03:57;;;;;;;;;;;18.70;67.70;;;;;;5419996;26;2030;-72
2024/04/20 14:06:22;;;;;;;;;;;18.60;67.60;;;;;;5396401;26;1893;-73
2024/04/20 14:08:48;;;;;;;;;;;18.70;67.60;;;;;;5419893;26;1826;-72
2024/04/20 14:11:15;;;;;;;;;;;18.60;67.60;;;;;;5367749;26;1598;-73
2024/04/20 14:13:40;;;;;;;;;;;18.70;67.60;;;;;;5377237;26;1855;-72
2024/04/20 14:16:06;;;;;;;;;;;18.60;67.60;;;;;;5393552;26;1800;-73
2024/04/20 14:18:31;;;;;;;;;;;18.60;67.60;;;;;;5418472;26;1762;-72
2024/04/20 14:20:57;;;;;;;;;;;18.60;67.50;;;;;;5394785;26;2140;-72
2024/04/20 14:23:22;;;;;;;;;;;18.60;67.60;;;;;;5365119;26;1899;-72
2024/04/20 14:25:58;;;;;;;;;;;18.70;67.70;;;;;;5416651;26;1825;-72